sensor_id;sensor_type;location;lat;lon;timestamp;temperature;humidity
42187;DHT22;27858;51.414;0.018;2023-01-19T00:00:18;1.30;99.90
42187;DHT22;27858;51.414;0.018;2023-01-19T00:02:45;1.40;99.90
42187;DHT22;27858;51.414;0.018;2023-01-19T00:05:13;1.40;99.90
42187;DHT22;27858;51.414;0.018;2023-01-19T00:07:40;1.40;99.90
42187;DHT22;27858;51.414;0.018;2023-01-19T00:10:08;1.30;99.90
42187;DHT22;27858;51.414;0.018;2023-01-19T00:12:35;1.40;99.90
42187;DHT22;27858;51.414;0.018;2023-01-19T00:15:03;1.40;99.90
42187;DHT22;27858;51.414;0.018;2023-01-19T00:17:29;1.40;99.90
42187;DHT22;27858;51.414;0.018;2023-01-19T00:19:56;1.30;99.90
42187;DHT22;27858;51.414;0.018;2023-01-19T00:22:23;1.30;99.90
42187;DHT22;27858;51.414;0.018;2023-01-19T00:24:50;1.20;99.90
42187;DHT22;27858;51.414;0.018;2023-01-19T00:27:17;1.30;99.90
42187;DHT22;27858;51.414;0.018;2023-01-19T00:29:44;1.20;99.90
42187;DHT22;27858;51.414;0.018;2023-01-19T00:32:10;1.30;99.90
42187;DHT22;27858;51.414;0.018;2023-01-19T00:34:37;1.30;99.90
42187;DHT22;27858;51.414;0.018;2023-01-19T00:37:08;1.30;99.90
42187;DHT22;27858;51.414;0.018;2023-01-19T00:39:35;1.20;99.90
42187;DHT22;27858;51.414;0.018;2023-01-19T00:42:02;1.20;99.90
42187;DHT22;27858;51.414;0.018;2023-01-19T00:44:48;1.30;99.90
42187;DHT22;27858;51.414;0.018;2023-01-19T00:47:14;1.20;99.90
42187;DHT22;27858;51.414;0.018;2023-01-19T00:49:41;1.30;99.90
42187;DHT22;27858;51.414;0.018;2023-01-19T00:52:08;1.10;99.90
42187;DHT22;27858;51.414;0.018;2023-01-19T00:54:35;1.30;99.90
42187;DHT22;27858;51.414;0.018;2023-01-19T00:57:01;1.10;99.90
42187;DHT22;27858;51.414;0.018;2023-01-19T00:59:29;1.10;99.90
42187;DHT22;27858;51.414;0.018;2023-01-19T05:02:14;0.40;99.90
42187;DHT22;27858;51.414;0.018;2023-01-19T05:04:41;0.40;99.90
42187;DHT22;27858;51.414;0.018;2023-01-19T05:07:08;0.40;99.90
42187;DHT22;27858;51.414;0.018;2023-01-19T05:09:35;0.40;99.90
42187;DHT22;27858;51.414;0.018;2023-01-19T05:12:02;0.30;99.90
42187;DHT22;27858;51.414;0.018;2023-01-19T05:14:29;0.20;99.90
42187;DHT22;27858;51.414;0.018;2023-01-19T05:16:56;0.30;99.90
42187;DHT22;27858;51.414;0.018;2023-01-19T05:19:23;0.10;99.90
42187;DHT22;27858;51.414;0.018;2023-01-19T05:21:50;0.30;99.90
42187;DHT22;27858;51.414;0.018;2023-01-19T05:24:17;0.20;99.90
42187;DHT22;27858;51.414;0.018;2023-01-19T05:26:44;0.30;99.90
42187;DHT22;27858;51.414;0.018;2023-01-19T05:29:11;0.40;99.90
42187;DHT22;27858;51.414;0.018;2023-01-19T05:31:38;0.40;99.90
42187;DHT22;27858;51.414;0.018;2023-01-19T05:34:05;0.30;99.90
42187;DHT22;27858;51.414;0.018;2023-01-19T05:36:32;0.10;99.90
42187;DHT22;27858;51.414;0.018;2023-01-19T05:38:58;0.20;99.90
42187;DHT22;27858;51.414;0.018;2023-01-19T05:41:25;0.20;99.90
42187;DHT22;27858;51.414;0.018;2023-01-19T05:43:52;0.10;99.90
42187;DHT22;27858;51.414;0.018;2023-01-19T05:46:19;0.10;99.90
42187;DHT22;27858;51.414;0.018;2023-01-19T05:48:46;0.20;99.90
42187;DHT22;27858;51.414;0.018;2023-01-19T05:51:12;0.10;99.90
42187;DHT22;27858;51.414;0.018;2023-01-19T05:53:39;0.10;99.90
42187;DHT22;27858;51.414;0.018;2023-01-19T05:56:07;0.10;99.90
42187;DHT22;27858;51.414;0.018;2023-01-19T05:58:38;0.30;99.90
42187;DHT22;27858;51.414;0.018;2023-01-19T06:01:06;0.30;99.90
42187;DHT22;27858;51.414;0.018;2023-01-19T06:03:35;0.20;99.90
42187;DHT22;27858;51.414;0.018;2023-01-19T06:06:02;0.20;99.90
42187;DHT22;27858;51.414;0.018;2023-01-19T06:08:29;0.30;99.90
42187;DHT22;27858;51.414;0.018;2023-01-19T06:10:56;0.30;99.90
42187;DHT22;27858;51.414;0.018;2023-01-19T06:13:23;0.30;99.90
42187;DHT22;27858;51.414;0.018;2023-01-19T06:15:56;0.10;99.90
42187;DHT22;27858;51.414;0.018;2023-01-19T06:18:23;0.00;99.90
42187;DHT22;27858;51.414;0.018;2023-01-19T06:20:50;0.20;99.90
42187;DHT22;27858;51.414;0.018;2023-01-19T06:23:17;0.00;99.90
42187;DHT22;27858;51.414;0.018;2023-01-19T06:25:48;0.10;99.90
42187;DHT22;27858;51.414;0.018;2023-01-19T06:28:14;0.10;99.90
42187;DHT22;27858;51.414;0.018;2023-01-19T06:30:41;0.30;99.90
42187;DHT22;27858;51.414;0.018;2023-01-19T06:33:08;0.20;99.90
42187;DHT22;27858;51.414;0.018;2023-01-19T06:35:35;0.10;99.90
42187;DHT22;27858;51.414;0.018;2023-01-19T06:38:02;0.00;99.90
42187;DHT22;27858;51.414;0.018;2023-01-19T06:40:28;0.20;99.90
42187;DHT22;27858;51.414;0.018;2023-01-19T06:42:55;0.30;99.90
42187;DHT22;27858;51.414;0.018;2023-01-19T06:45:22;0.30;99.90
42187;DHT22;27858;51.414;0.018;2023-01-19T06:47:49;0.30;99.90
42187;DHT22;27858;51.414;0.018;2023-01-19T06:50:16;0.30;99.90
42187;DHT22;27858;51.414;0.018;2023-01-19T06:52:42;0.10;99.90
42187;DHT22;27858;51.414;0.018;2023-01-19T06:55:10;0.20;99.90
42187;DHT22;27858;51.414;0.018;2023-01-19T06:57:37;0.00;99.90
42187;DHT22;27858;51.414;0.018;2023-01-19T07:00:05;0.00;99.90
42187;DHT22;27858;51.414;0.018;2023-01-19T07:02:34;0.10;99.90
42187;DHT22;27858;51.414;0.018;2023-01-19T07:05:01;0.30;99.90
42187;DHT22;27858;51.414;0.018;2023-01-19T07:07:28;0.10;99.90
42187;DHT22;27858;51.414;0.018;2023-01-19T07:09:55;0.20;99.90
42187;DHT22;27858;51.414;0.018;2023-01-19T07:12:22;0.10;99.90
42187;DHT22;27858;51.414;0.018;2023-01-19T07:14:49;0.10;99.90
42187;DHT22;27858;51.414;0.018;2023-01-19T07:17:17;0.10;99.90
42187;DHT22;27858;51.414;0.018;2023-01-19T07:19:45;0.30;99.90
42187;DHT22;27858;51.414;0.018;2023-01-19T07:22:12;0.30;99.90
42187;DHT22;27858;51.414;0.018;2023-01-19T07:24:39;0.20;99.90
42187;DHT22;27858;51.414;0.018;2023-01-19T07:27:06;0.30;99.90
42187;DHT22;27858;51.414;0.018;2023-01-19T07:29:33;0.10;99.90
42187;DHT22;27858;51.414;0.018;2023-01-19T07:32:00;0.20;99.90
42187;DHT22;27858;51.414;0.018;2023-01-19T07:34:27;0.30;99.90
42187;DHT22;27858;51.414;0.018;2023-01-19T07:36:54;0.30;99.90
42187;DHT22;27858;51.414;0.018;2023-01-19T07:39:21;0.30;99.90
42187;DHT22;27858;51.414;0.018;2023-01-19T07:41:48;0.30;99.90
42187;DHT22;27858;51.414;0.018;2023-01-19T07:44:15;0.30;99.90
42187;DHT22;27858;51.414;0.018;2023-01-19T07:46:42;0.20;99.90
42187;DHT22;27858;51.414;0.018;2023-01-19T07:49:09;0.20;99.90
42187;DHT22;27858;51.414;0.018;2023-01-19T07:51:36;0.30;99.90
42187;DHT22;27858;51.414;0.018;2023-01-19T07:54:03;0.50;99.90
42187;DHT22;27858;51.414;0.018;2023-01-19T07:56:30;0.50;99.90
42187;DHT22;27858;51.414;0.018;2023-01-19T07:58:59;0.20;99.90
42187;DHT22;27858;51.414;0.018;2023-01-19T08:01:26;0.20;99.90
42187;DHT22;27858;51.414;0.018;2023-01-19T08:03:53;0.20;99.90
42187;DHT22;27858;51.414;0.018;2023-01-19T08:06:22;0.50;99.90
42187;DHT22;27858;51.414;0.018;2023-01-19T08:08:49;0.30;99.90
42187;DHT22;27858;51.414;0.018;2023-01-19T08:11:16;0.40;99.90
42187;DHT22;27858;51.414;0.018;2023-01-19T08:13:43;0.50;99.90
42187;DHT22;27858;51.414;0.018;2023-01-19T08:16:10;0.30;99.90
42187;DHT22;27858;51.414;0.018;2023-01-19T08:18:37;0.50;99.90
42187;DHT22;27858;51.414;0.018;2023-01-19T08:21:04;0.60;99.90
42187;DHT22;27858;51.414;0.018;2023-01-19T08:23:31;0.60;99.90
42187;DHT22;27858;51.414;0.018;2023-01-19T08:25:58;0.30;99.90
42187;DHT22;27858;51.414;0.018;2023-01-19T08:28:25;0.40;99.90
42187;DHT22;27858;51.414;0.018;2023-01-19T08:30:52;0.60;99.90
42187;DHT22;27858;51.414;0.018;2023-01-19T08:33:22;0.60;99.90
42187;DHT22;27858;51.414;0.018;2023-01-19T08:35:52;0.50;99.90
42187;DHT22;27858;51.414;0.018;2023-01-19T08:38:19;0.50;99.90
42187;DHT22;27858;51.414;0.018;2023-01-19T08:40:45;0.60;99.90
42187;DHT22;27858;51.414;0.018;2023-01-19T08:43:15;0.60;99.90
42187;DHT22;27858;51.414;0.018;2023-01-19T08:45:44;0.70;99.90
42187;DHT22;27858;51.414;0.018;2023-01-19T08:48:15;0.60;99.90
42187;DHT22;27858;51.414;0.018;2023-01-19T08:50:44;0.50;99.90
42187;DHT22;27858;51.414;0.018;2023-01-19T08:53:12;0.50;99.90
42187;DHT22;27858;51.414;0.018;2023-01-19T08:55:39;0.50;99.90
42187;DHT22;27858;51.414;0.018;2023-01-19T08:58:07;0.70;99.90
42187;DHT22;27858;51.414;0.018;2023-01-19T09:00:35;0.70;99.90
42187;DHT22;27858;51.414;0.018;2023-01-19T09:03:07;0.70;99.90
42187;DHT22;27858;51.414;0.018;2023-01-19T09:05:35;0.60;99.90
42187;DHT22;27858;51.414;0.018;2023-01-19T09:08:06;0.80;99.90
42187;DHT22;27858;51.414;0.018;2023-01-19T09:10:37;0.80;99.90
42187;DHT22;27858;51.414;0.018;2023-01-19T09:13:06;0.80;99.90
42187;DHT22;27858;51.414;0.018;2023-01-19T09:15:34;0.80;99.90
42187;DHT22;27858;51.414;0.018;2023-01-19T09:18:06;0.70;99.90
42187;DHT22;27858;51.414;0.018;2023-01-19T09:20:33;0.70;99.90
42187;DHT22;27858;51.414;0.018;2023-01-19T09:23:01;0.70;99.90
42187;DHT22;27858;51.414;0.018;2023-01-19T09:25:28;0.90;99.90
42187;DHT22;27858;51.414;0.018;2023-01-19T09:27:55;0.90;99.90
42187;DHT22;27858;51.414;0.018;2023-01-19T09:30:22;1.00;99.90
42187;DHT22;27858;51.414;0.018;2023-01-19T09:32:49;1.00;99.90
42187;DHT22;27858;51.414;0.018;2023-01-19T09:35:16;0.90;99.90
42187;DHT22;27858;51.414;0.018;2023-01-19T09:37:46;1.10;99.90
42187;DHT22;27858;51.414;0.018;2023-01-19T09:40:15;1.10;99.90
42187;DHT22;27858;51.414;0.018;2023-01-19T09:42:50;1.20;99.90
42187;DHT22;27858;51.414;0.018;2023-01-19T09:45:29;1.00;99.90
42187;DHT22;27858;51.414;0.018;2023-01-19T09:47:59;1.10;99.90
42187;DHT22;27858;51.414;0.018;2023-01-19T09:50:33;1.10;99.90
42187;DHT22;27858;51.414;0.018;2023-01-19T09:53:09;1.10;99.90
42187;DHT22;27858;51.414;0.018;2023-01-19T09:55:40;1.30;99.90
42187;DHT22;27858;51.414;0.018;2023-01-19T09:58:15;1.20;99.90
42187;DHT22;27858;51.414;0.018;2023-01-19T10:00:50;1.20;99.90
42187;DHT22;27858;51.414;0.018;2023-01-19T10:03:18;1.20;99.90
42187;DHT22;27858;51.414;0.018;2023-01-19T10:05:53;1.50;99.90
42187;DHT22;27858;51.414;0.018;2023-01-19T10:08:49;1.50;99.90
42187;DHT22;27858;51.414;0.018;2023-01-19T10:11:45;1.60;99.90
42187;DHT22;27858;51.414;0.018;2023-01-19T10:14:31;1.50;99.90
42187;DHT22;27858;51.414;0.018;2023-01-19T10:20:00;1.70;99.90
42187;DHT22;27858;51.414;0.018;2023-01-19T10:22:28;1.80;99.90
42187;DHT22;27858;51.414;0.018;2023-01-19T10:24:59;1.80;99.90
42187;DHT22;27858;51.414;0.018;2023-01-19T10:27:30;1.70;99.90
42187;DHT22;27858;51.414;0.018;2023-01-19T10:30:00;1.80;99.90
42187;DHT22;27858;51.414;0.018;2023-01-19T10:32:30;2.00;99.90
42187;DHT22;27858;51.414;0.018;2023-01-19T10:34:58;1.90;99.90
42187;DHT22;27858;51.414;0.018;2023-01-19T10:37:32;2.10;99.90
42187;DHT22;27858;51.414;0.018;2023-01-19T10:42:40;2.10;99.90
42187;DHT22;27858;51.414;0.018;2023-01-19T10:45:17;2.40;99.90
42187;DHT22;27858;51.414;0.018;2023-01-19T10:47:46;2.40;99.90
42187;DHT22;27858;51.414;0.018;2023-01-19T10:50:31;2.30;99.90
42187;DHT22;27858;51.414;0.018;2023-01-19T10:53:00;2.40;99.90
42187;DHT22;27858;51.414;0.018;2023-01-19T10:55:31;2.40;99.90
42187;DHT22;27858;51.414;0.018;2023-01-19T10:58:00;2.50;99.90
42187;DHT22;27858;51.414;0.018;2023-01-19T11:02:57;2.60;99.90
42187;DHT22;27858;51.414;0.018;2023-01-19T11:05:26;2.70;99.90
42187;DHT22;27858;51.414;0.018;2023-01-19T11:07:53;2.70;99.90
42187;DHT22;27858;51.414;0.018;2023-01-19T11:10:25;2.80;99.90
42187;DHT22;27858;51.414;0.018;2023-01-19T11:12:59;3.00;99.90
42187;DHT22;27858;51.414;0.018;2023-01-19T11:18:30;3.00;99.90
42187;DHT22;27858;51.414;0.018;2023-01-19T11:21:03;3.20;99.90
42187;DHT22;27858;51.414;0.018;2023-01-19T11:26:14;3.30;99.90
42187;DHT22;27858;51.414;0.018;2023-01-19T11:28:46;3.20;99.90
42187;DHT22;27858;51.414;0.018;2023-01-19T11:36:18;3.40;99.90
42187;DHT22;27858;51.414;0.018;2023-01-19T11:38:53;3.40;99.90
42187;DHT22;27858;51.414;0.018;2023-01-19T11:41:30;3.60;99.90
42187;DHT22;27858;51.414;0.018;2023-01-19T11:50:14;3.90;99.90
42187;DHT22;27858;51.414;0.018;2023-01-19T11:53:11;3.90;99.90
42187;DHT22;27858;51.414;0.018;2023-01-19T11:55:52;3.90;99.90
42187;DHT22;27858;51.414;0.018;2023-01-19T11:58:19;4.00;99.90
42187;DHT22;27858;51.414;0.018;2023-01-19T12:00:53;4.00;99.90
42187;DHT22;27858;51.414;0.018;2023-01-19T12:03:36;4.10;99.90
42187;DHT22;27858;51.414;0.018;2023-01-19T12:06:11;4.20;99.90
42187;DHT22;27858;51.414;0.018;2023-01-19T12:08:46;4.20;99.90
42187;DHT22;27858;51.414;0.018;2023-01-19T12:11:17;4.30;99.90
42187;DHT22;27858;51.414;0.018;2023-01-19T12:13:45;4.30;99.90
42187;DHT22;27858;51.414;0.018;2023-01-19T12:16:20;4.30;99.90
42187;DHT22;27858;51.414;0.018;2023-01-19T12:18:54;4.40;99.40
42187;DHT22;27858;51.414;0.018;2023-01-19T12:21:21;4.40;99.90
42187;DHT22;27858;51.414;0.018;2023-01-19T12:29:19;4.60;89.90
42187;DHT22;27858;51.414;0.018;2023-01-19T12:34:47;4.50;63.70
42187;DHT22;27858;51.414;0.018;2023-01-19T12:37:38;4.70;82.80
42187;DHT22;27858;51.414;0.018;2023-01-19T12:40:27;4.90;90.00
42187;DHT22;27858;51.414;0.018;2023-01-19T12:42:58;4.90;82.30
42187;DHT22;27858;51.414;0.018;2023-01-19T12:45:34;4.90;49.10
42187;DHT22;27858;51.414;0.018;2023-01-19T12:48:03;4.90;25.00
42187;DHT22;27858;51.414;0.018;2023-01-19T12:50:34;4.90;20.10
42187;DHT22;27858;51.414;0.018;2023-01-19T12:53:05;4.90;29.70
42187;DHT22;27858;51.414;0.018;2023-01-19T12:55:41;4.80;22.20
42187;DHT22;27858;51.414;0.018;2023-01-19T12:58:15;4.80;25.00
42187;DHT22;27858;51.414;0.018;2023-01-19T13:00:48;5.00;23.60
42187;DHT22;27858;51.414;0.018;2023-01-19T13:05:53;5.20;31.50
42187;DHT22;27858;51.414;0.018;2023-01-19T13:08:55;5.30;23.00
42187;DHT22;27858;51.414;0.018;2023-01-19T13:11:17;5.40;11.90
42187;DHT22;27858;51.414;0.018;2023-01-19T13:21:30;5.40;1.00
42187;DHT22;27858;51.414;0.018;2023-01-19T13:23:59;5.40;1.00
42187;DHT22;27858;51.414;0.018;2023-01-19T13:27:11;5.50;1.00
42187;DHT22;27858;51.414;0.018;2023-01-19T13:31:52;5.40;1.00
42187;DHT22;27858;51.414;0.018;2023-01-19T13:34:39;5.30;1.00
42187;DHT22;27858;51.414;0.018;2023-01-19T13:37:18;5.40;1.00
42187;DHT22;27858;51.414;0.018;2023-01-19T13:39:47;5.30;1.00
42187;DHT22;27858;51.414;0.018;2023-01-19T13:44:58;5.50;1.00
42187;DHT22;27858;51.414;0.018;2023-01-19T13:47:44;5.60;1.00
42187;DHT22;27858;51.414;0.018;2023-01-19T13:50:23;5.60;1.00
42187;DHT22;27858;51.414;0.018;2023-01-19T13:52:50;5.50;1.00
42187;DHT22;27858;51.414;0.018;2023-01-19T13:55:20;5.40;1.00
42187;DHT22;27858;51.414;0.018;2023-01-19T13:57:48;5.30;1.00
42187;DHT22;27858;51.414;0.018;2023-01-19T14:00:21;5.40;1.00
42187;DHT22;27858;51.414;0.018;2023-01-19T14:05:38;6.10;1.00
42187;DHT22;27858;51.414;0.018;2023-01-19T14:10:38;6.30;1.00
42187;DHT22;27858;51.414;0.018;2023-01-19T14:13:21;6.50;1.00
42187;DHT22;27858;51.414;0.018;2023-01-19T14:15:50;6.40;1.00
42187;DHT22;27858;51.414;0.018;2023-01-19T14:23:48;6.50;1.00
42187;DHT22;27858;51.414;0.018;2023-01-19T14:32:02;6.80;1.00
42187;DHT22;27858;51.414;0.018;2023-01-19T14:34:34;7.00;1.00
42187;DHT22;27858;51.414;0.018;2023-01-19T14:37:02;7.00;99.90
42187;DHT22;27858;51.414;0.018;2023-01-19T14:39:32;6.80;99.90
42187;DHT22;27858;51.414;0.018;2023-01-19T14:42:03;6.90;99.90
42187;DHT22;27858;51.414;0.018;2023-01-19T14:44:37;6.80;99.90
42187;DHT22;27858;51.414;0.018;2023-01-19T14:47:06;6.70;99.90
42187;DHT22;27858;51.414;0.018;2023-01-19T14:49:46;6.60;99.90
42187;DHT22;27858;51.414;0.018;2023-01-19T14:52:24;6.80;1.00
42187;DHT22;27858;51.414;0.018;2023-01-19T14:54:51;6.70;99.90
42187;DHT22;27858;51.414;0.018;2023-01-19T14:57:19;6.60;99.90
42187;DHT22;27858;51.414;0.018;2023-01-19T14:59:46;6.60;1.00
42187;DHT22;27858;51.414;0.018;2023-01-19T15:02:16;6.70;1.00
42187;DHT22;27858;51.414;0.018;2023-01-19T15:04:45;6.80;99.90
42187;DHT22;27858;51.414;0.018;2023-01-19T15:07:17;6.80;99.90
42187;DHT22;27858;51.414;0.018;2023-01-19T15:09:45;6.60;99.90
42187;DHT22;27858;51.414;0.018;2023-01-19T15:12:15;6.80;99.90
42187;DHT22;27858;51.414;0.018;2023-01-19T15:14:43;6.70;99.90
42187;DHT22;27858;51.414;0.018;2023-01-19T15:17:16;6.80;99.90
42187;DHT22;27858;51.414;0.018;2023-01-19T15:19:52;6.80;99.90
42187;DHT22;27858;51.414;0.018;2023-01-19T15:22:20;6.90;99.90
42187;DHT22;27858;51.414;0.018;2023-01-19T15:24:50;6.80;99.90
42187;DHT22;27858;51.414;0.018;2023-01-19T15:27:17;6.80;99.90
42187;DHT22;27858;51.414;0.018;2023-01-19T15:29:44;6.80;99.90
42187;DHT22;27858;51.414;0.018;2023-01-19T15:32:12;6.90;99.90
42187;DHT22;27858;51.414;0.018;2023-01-19T15:34:40;6.90;99.90
42187;DHT22;27858;51.414;0.018;2023-01-19T15:37:07;6.80;99.90
42187;DHT22;27858;51.414;0.018;2023-01-19T15:39:34;6.60;99.90
42187;DHT22;27858;51.414;0.018;2023-01-19T15:42:01;6.40;99.90
42187;DHT22;27858;51.414;0.018;2023-01-19T15:44:29;6.40;99.90
42187;DHT22;27858;51.414;0.018;2023-01-19T15:46:55;6.30;99.90
42187;DHT22;27858;51.414;0.018;2023-01-19T15:49:23;6.20;99.90
42187;DHT22;27858;51.414;0.018;2023-01-19T15:51:50;6.00;99.90
42187;DHT22;27858;51.414;0.018;2023-01-19T15:54:17;5.90;99.90
42187;DHT22;27858;51.414;0.018;2023-01-19T15:56:44;5.80;99.90
42187;DHT22;27858;51.414;0.018;2023-01-19T15:59:11;5.70;99.90
42187;DHT22;27858;51.414;0.018;2023-01-19T16:01:39;5.60;99.90
42187;DHT22;27858;51.414;0.018;2023-01-19T16:04:07;5.60;99.90
42187;DHT22;27858;51.414;0.018;2023-01-19T16:06:36;5.50;99.90
42187;DHT22;27858;51.414;0.018;2023-01-19T16:09:03;5.40;99.90
42187;DHT22;27858;51.414;0.018;2023-01-19T16:11:33;5.30;99.90
42187;DHT22;27858;51.414;0.018;2023-01-19T16:14:00;5.30;99.90
42187;DHT22;27858;51.414;0.018;2023-01-19T16:16:27;5.20;99.90
42187;DHT22;27858;51.414;0.018;2023-01-19T16:18:56;5.20;99.90
42187;DHT22;27858;51.414;0.018;2023-01-19T16:21:23;5.10;1.00
42187;DHT22;27858;51.414;0.018;2023-01-19T16:23:50;5.10;1.00
42187;DHT22;27858;51.414;0.018;2023-01-19T16:26:31;5.00;1.00
42187;DHT22;27858;51.414;0.018;2023-01-19T16:29:02;4.90;99.90
42187;DHT22;27858;51.414;0.018;2023-01-19T16:31:35;4.90;1.00
42187;DHT22;27858;51.414;0.018;2023-01-19T16:34:02;4.80;1.00
42187;DHT22;27858;51.414;0.018;2023-01-19T16:36:31;4.80;1.00
42187;DHT22;27858;51.414;0.018;2023-01-19T16:38:59;4.60;1.00
42187;DHT22;27858;51.414;0.018;2023-01-19T16:41:28;4.60;1.00
42187;DHT22;27858;51.414;0.018;2023-01-19T16:43:56;4.50;1.00
42187;DHT22;27858;51.414;0.018;2023-01-19T16:46:31;4.50;1.00
42187;DHT22;27858;51.414;0.018;2023-01-19T16:49:05;4.40;1.00
42187;DHT22;27858;51.414;0.018;2023-01-19T16:51:32;4.30;1.00
42187;DHT22;27858;51.414;0.018;2023-01-19T16:53:59;4.30;1.00
42187;DHT22;27858;51.414;0.018;2023-01-19T16:56:25;4.30;1.00
42187;DHT22;27858;51.414;0.018;2023-01-19T16:58:57;4.20;1.00
42187;DHT22;27858;51.414;0.018;2023-01-19T17:01:27;4.10;1.00
42187;DHT22;27858;51.414;0.018;2023-01-19T17:03:55;4.10;1.00
42187;DHT22;27858;51.414;0.018;2023-01-19T17:06:23;4.00;1.00
42187;DHT22;27858;51.414;0.018;2023-01-19T17:08:51;4.00;1.00
42187;DHT22;27858;51.414;0.018;2023-01-19T17:11:20;3.90;1.00
42187;DHT22;27858;51.414;0.018;2023-01-19T17:13:59;3.80;1.00
42187;DHT22;27858;51.414;0.018;2023-01-19T17:16:28;3.80;1.00
42187;DHT22;27858;51.414;0.018;2023-01-19T17:18:56;3.70;1.00
42187;DHT22;27858;51.414;0.018;2023-01-19T17:21:24;3.70;1.00
42187;DHT22;27858;51.414;0.018;2023-01-19T17:23:52;3.70;1.00
42187;DHT22;27858;51.414;0.018;2023-01-19T17:26:19;3.60;1.00
42187;DHT22;27858;51.414;0.018;2023-01-19T17:28:46;3.60;1.00
42187;DHT22;27858;51.414;0.018;2023-01-19T17:31:18;3.60;5.20
42187;DHT22;27858;51.414;0.018;2023-01-19T17:33:47;3.50;10.30
42187;DHT22;27858;51.414;0.018;2023-01-19T17:36:18;3.50;16.10
42187;DHT22;27858;51.414;0.018;2023-01-19T17:38:48;3.50;18.40
42187;DHT22;27858;51.414;0.018;2023-01-19T17:41:18;3.40;22.00
42187;DHT22;27858;51.414;0.018;2023-01-19T17:43:45;3.40;26.90
42187;DHT22;27858;51.414;0.018;2023-01-19T17:46:12;3.30;32.20
42187;DHT22;27858;51.414;0.018;2023-01-19T17:48:39;3.30;34.80
42187;DHT22;27858;51.414;0.018;2023-01-19T17:51:09;3.30;38.70
42187;DHT22;27858;51.414;0.018;2023-01-19T17:53:38;3.20;45.60
42187;DHT22;27858;51.414;0.018;2023-01-19T17:56:16;3.20;49.80
42187;DHT22;27858;51.414;0.018;2023-01-19T17:58:43;3.20;53.40
42187;DHT22;27858;51.414;0.018;2023-01-19T18:01:22;3.20;58.20
42187;DHT22;27858;51.414;0.018;2023-01-19T18:03:50;3.20;63.50
42187;DHT22;27858;51.414;0.018;2023-01-19T18:06:18;3.10;70.90
42187;DHT22;27858;51.414;0.018;2023-01-19T18:08:46;3.20;73.50
42187;DHT22;27858;51.414;0.018;2023-01-19T18:11:16;3.10;72.90
42187;DHT22;27858;51.414;0.018;2023-01-19T18:13:45;3.10;72.50
42187;DHT22;27858;51.414;0.018;2023-01-19T18:16:16;3.10;75.70
42187;DHT22;27858;51.414;0.018;2023-01-19T18:18:44;3.00;74.80
42187;DHT22;27858;51.414;0.018;2023-01-19T18:21:13;3.10;74.00
42187;DHT22;27858;51.414;0.018;2023-01-19T18:23:40;3.00;75.10
42187;DHT22;27858;51.414;0.018;2023-01-19T18:26:15;3.00;78.90
42187;DHT22;27858;51.414;0.018;2023-01-19T18:28:42;3.00;78.50
42187;DHT22;27858;51.414;0.018;2023-01-19T18:31:11;3.10;78.90
42187;DHT22;27858;51.414;0.018;2023-01-19T18:33:39;3.10;79.60
42187;DHT22;27858;51.414;0.018;2023-01-19T18:36:07;3.00;80.30
42187;DHT22;27858;51.414;0.018;2023-01-19T18:38:34;3.00;91.00
42187;DHT22;27858;51.414;0.018;2023-01-19T18:41:07;3.00;91.50
42187;DHT22;27858;51.414;0.018;2023-01-19T18:43:36;3.00;93.40
42187;DHT22;27858;51.414;0.018;2023-01-19T18:46:03;2.90;93.50
42187;DHT22;27858;51.414;0.018;2023-01-19T18:48:30;2.90;94.00
42187;DHT22;27858;51.414;0.018;2023-01-19T18:50:57;3.00;95.10
42187;DHT22;27858;51.414;0.018;2023-01-19T18:53:30;2.90;97.80
42187;DHT22;27858;51.414;0.018;2023-01-19T18:55:58;2.90;97.60
42187;DHT22;27858;51.414;0.018;2023-01-19T18:58:25;2.80;98.00
42187;DHT22;27858;51.414;0.018;2023-01-19T19:00:55;2.80;99.90
42187;DHT22;27858;51.414;0.018;2023-01-19T19:03:22;2.80;99.90
42187;DHT22;27858;51.414;0.018;2023-01-19T19:05:49;2.80;99.90
42187;DHT22;27858;51.414;0.018;2023-01-19T19:08:17;2.70;99.90
42187;DHT22;27858;51.414;0.018;2023-01-19T19:10:44;2.80;99.90
42187;DHT22;27858;51.414;0.018;2023-01-19T19:13:13;2.70;99.90
42187;DHT22;27858;51.414;0.018;2023-01-19T19:15:40;2.70;99.90
42187;DHT22;27858;51.414;0.018;2023-01-19T19:18:07;2.70;99.90
42187;DHT22;27858;51.414;0.018;2023-01-19T19:20:37;2.60;99.90
42187;DHT22;27858;51.414;0.018;2023-01-19T19:23:05;2.70;99.90
42187;DHT22;27858;51.414;0.018;2023-01-19T19:25:32;2.70;99.90
42187;DHT22;27858;51.414;0.018;2023-01-19T19:27:59;2.60;99.90
42187;DHT22;27858;51.414;0.018;2023-01-19T19:30:26;2.60;99.90
42187;DHT22;27858;51.414;0.018;2023-01-19T19:32:54;2.50;99.90
42187;DHT22;27858;51.414;0.018;2023-01-19T19:35:24;2.50;99.90
42187;DHT22;27858;51.414;0.018;2023-01-19T19:37:51;2.50;99.90
42187;DHT22;27858;51.414;0.018;2023-01-19T19:40:24;2.50;99.90
42187;DHT22;27858;51.414;0.018;2023-01-19T19:42:51;2.50;99.90
42187;DHT22;27858;51.414;0.018;2023-01-19T19:45:18;2.50;99.90
42187;DHT22;27858;51.414;0.018;2023-01-19T19:47:45;2.50;99.90
42187;DHT22;27858;51.414;0.018;2023-01-19T19:50:11;2.40;99.90
42187;DHT22;27858;51.414;0.018;2023-01-19T19:52:40;2.40;99.90
42187;DHT22;27858;51.414;0.018;2023-01-19T19:55:08;2.50;99.90
42187;DHT22;27858;51.414;0.018;2023-01-19T19:57:36;2.40;99.90
42187;DHT22;27858;51.414;0.018;2023-01-19T20:00:03;2.40;99.90
42187;DHT22;27858;51.414;0.018;2023-01-19T20:02:30;2.40;99.90
42187;DHT22;27858;51.414;0.018;2023-01-19T20:04:58;2.50;99.90
42187;DHT22;27858;51.414;0.018;2023-01-19T20:07:25;2.50;99.90
42187;DHT22;27858;51.414;0.018;2023-01-19T20:09:52;2.40;99.90
42187;DHT22;27858;51.414;0.018;2023-01-19T20:12:21;2.50;99.90
42187;DHT22;27858;51.414;0.018;2023-01-19T20:14:48;2.40;99.90
42187;DHT22;27858;51.414;0.018;2023-01-19T20:17:16;2.30;99.90
42187;DHT22;27858;51.414;0.018;2023-01-19T20:19:44;2.40;99.90
42187;DHT22;27858;51.414;0.018;2023-01-19T20:22:14;2.40;99.90
42187;DHT22;27858;51.414;0.018;2023-01-19T20:24:41;2.30;99.90
42187;DHT22;27858;51.414;0.018;2023-01-19T20:27:09;2.40;99.90
42187;DHT22;27858;51.414;0.018;2023-01-19T20:29:37;2.30;99.90
42187;DHT22;27858;51.414;0.018;2023-01-19T20:32:04;2.30;99.90
42187;DHT22;27858;51.414;0.018;2023-01-19T20:34:31;2.30;99.90
42187;DHT22;27858;51.414;0.018;2023-01-19T20:37:00;2.20;99.90
42187;DHT22;27858;51.414;0.018;2023-01-19T20:39:27;2.30;99.90
42187;DHT22;27858;51.414;0.018;2023-01-19T20:41:58;2.30;99.90
42187;DHT22;27858;51.414;0.018;2023-01-19T20:44:25;2.20;99.90
42187;DHT22;27858;51.414;0.018;2023-01-19T20:46:53;2.20;99.90
42187;DHT22;27858;51.414;0.018;2023-01-19T20:49:21;2.20;99.90
42187;DHT22;27858;51.414;0.018;2023-01-19T20:51:48;2.20;99.90
42187;DHT22;27858;51.414;0.018;2023-01-19T20:54:18;2.10;99.90
42187;DHT22;27858;51.414;0.018;2023-01-19T20:56:46;2.20;99.90
42187;DHT22;27858;51.414;0.018;2023-01-19T20:59:13;2.00;99.90
42187;DHT22;27858;51.414;0.018;2023-01-19T21:01:40;2.10;99.90
42187;DHT22;27858;51.414;0.018;2023-01-19T21:04:09;1.90;99.90
42187;DHT22;27858;51.414;0.018;2023-01-19T21:06:36;1.90;99.90